Time;durP1;ratioP1;P1;durP2;ratioP2;P2;SDS_P1;SDS_P2;PMS_P1;PMS_P2;Temp;Humidity;BMP_temperature;BMP_pressure;BME280_temperature;BME280_humidity;BME280_pressure;Samples;Min_cycle;Max_cycle;Signal;HPM_P1;HPM_P2
2022/09/22 00:00:03;;;;;;;;;;;;;;;11.55;37.83;102075.50;4976017;28;19984;-85
2022/09/22 00:02:32;;;;;;;;;;;;;;;11.52;38.09;102073.84;5017807;28;19921;-83
2022/09/22 00:05:00;;;;;;;;;;;;;;;11.49;38.38;102064.97;4992943;28;19922;-86
2022/09/22 00:07:30;;;;;;;;;;;;;;;11.47;38.37;102064.22;4969420;28;19922;-87
2022/09/22 00:19:38;;;;;;;;;;;;;;;11.35;38.56;102071.44;4947114;28;19922;-86
2022/09/22 00:22:32;;;;;;;;;;;;;;;11.33;38.51;102076.16;4942561;29;20351;-86
2022/09/22 00:25:06;;;;;;;;;;;;;;;11.32;38.91;102071.66;4948409;28;19923;-86
2022/09/22 00:27:39;;;;;;;;;;;;;;;11.29;38.93;102072.78;4933926;29;19923;-85
2022/09/22 00:30:10;;;;;;;;;;;;;;;11.28;38.87;102065.53;4948476;28;19923;-84
2022/09/22 00:32:39;;;;;;;;;;;;;;;11.26;38.49;102070.25;4963442;28;19962;-84
2022/09/22 00:35:08;;;;;;;;;;;;;;;11.26;38.51;102072.97;4960376;28;19923;-83
2022/09/22 00:37:35;;;;;;;;;;;;;;;11.24;38.68;102072.19;4954324;28;19950;-84
2022/09/22 00:40:05;;;;;;;;;;;;;;;11.24;38.54;102063.09;4955147;28;19929;-84
2022/09/22 00:42:33;;;;;;;;;;;;;;;11.23;38.75;102069.56;4953353;28;19932;-84
2022/09/22 00:45:01;;;;;;;;;;;;;;;11.23;38.68;102064.97;4999811;28;19921;-84
2022/09/22 00:47:32;;;;;;;;;;;;;;;11.22;38.58;102060.50;4996222;28;19926;-84
2022/09/22 00:50:03;;;;;;;;;;;;;;;11.22;38.40;102060.50;5004182;28;19945;-84
2022/09/22 00:52:33;;;;;;;;;;;;;;;11.21;38.64;102057.84;4984034;28;19928;-84
2022/09/22 00:55:03;;;;;;;;;;;;;;;11.20;38.79;102065.19;4993242;28;19936;-85
2022/09/22 00:57:33;;;;;;;;;;;;;;;11.20;38.45;102064.31;5015202;28;19925;-86
2022/09/22 01:00:02;;;;;;;;;;;;;;;11.18;38.57;102060.81;4988232;28;20369;-85
2022/09/22 01:02:31;;;;;;;;;;;;;;;11.16;38.73;102054.56;4996869;28;19929;-84
2022/09/22 01:05:05;;;;;;;;;;;;;;;11.15;38.60;102056.41;4958401;28;19944;-84
2022/09/22 01:07:40;;;;;;;;;;;;;;;11.13;38.63;102054.78;4987947;28;20011;-84
2022/09/22 01:17:26;;;;;;;;;;;;;;;11.06;38.63;102035.16;4969107;28;20004;-84
2022/09/22 01:20:16;;;;;;;;;;;;;;;11.03;39.07;102040.88;5002403;28;19926;-84
2022/09/22 01:26:26;;;;;;;;;;;;;;;11.01;38.89;102037.34;4945366;28;20361;-85
2022/09/22 01:29:15;;;;;;;;;;;;;;;10.99;38.96;102033.84;4980298;28;19957;-85
2022/09/22 01:44:13;;;;;;;;;;;;;;;10.91;39.18;102023.41;4989718;28;20444;-83
2022/09/22 01:46:56;;;;;;;;;;;;;;;10.89;39.16;102019.94;4979492;28;19922;-84
2022/09/22 01:49:28;;;;;;;;;;;;;;;10.88;39.07;102020.03;5014511;28;19921;-85
2022/09/22 01:51:58;;;;;;;;;;;;;;;10.87;39.21;102021.91;4985510;28;19941;-84
2022/09/22 01:54:30;;;;;;;;;;;;;;;10.86;39.14;102013.78;5008451;28;19960;-85
2022/09/22 01:57:00;;;;;;;;;;;;;;;10.85;39.17;102017.50;5003106;28;20004;-86
2022/09/22 01:59:30;;;;;;;;;;;;;;;10.83;39.44;102012.13;4998390;28;19943;-87
2022/09/22 02:02:02;;;;;;;;;;;;;;;10.82;39.52;102017.72;4997491;28;19932;-86
2022/09/22 02:04:34;;;;;;;;;;;;;;;10.82;39.40;102009.50;5012003;28;20302;-86
2022/09/22 02:07:05;;;;;;;;;;;;;;;10.80;38.99;102014.22;4975034;28;19922;-86
2022/09/22 02:09:33;;;;;;;;;;;;;;;10.78;39.35;102008.84;4977246;28;19951;-85
2022/09/22 02:12:02;;;;;;;;;;;;;;;10.77;39.15;102004.34;4992953;28;19965;-87
2022/09/22 02:14:30;;;;;;;;;;;;;;;10.76;39.58;101999.84;4998729;28;19937;-87
2022/09/22 02:16:59;;;;;;;;;;;;;;;10.75;39.40;102008.19;4997981;28;19922;-87
2022/09/22 02:19:32;;;;;;;;;;;;;;;10.73;39.38;102005.53;4996662;28;19921;-86
2022/09/22 02:22:00;;;;;;;;;;;;;;;10.71;39.58;102010.28;4996795;28;20444;-87
2022/09/22 02:24:28;;;;;;;;;;;;;;;10.70;39.61;102014.00;4997700;28;19975;-86
2022/09/22 02:26:57;;;;;;;;;;;;;;;10.68;39.66;102001.38;4982447;28;19974;-85
2022/09/22 02:29:26;;;;;;;;;;;;;;;10.65;39.55;102004.34;5003374;28;19926;-85
2022/09/22 02:31:55;;;;;;;;;;;;;;;10.63;39.68;102000.84;4970451;28;19922;-85
2022/09/22 02:34:23;;;;;;;;;;;;;;;10.61;39.53;101998.19;4962746;28;20018;-86
2022/09/22 02:36:56;;;;;;;;;;;;;;;10.59;39.70;101995.56;5001953;28;20396;-85
2022/09/22 02:39:27;;;;;;;;;;;;;;;10.58;39.70;101992.94;4997536;28;19921;-85
2022/09/22 02:42:16;;;;;;;;;;;;;;;10.57;39.57;101997.53;4996928;28;19928;-86
2022/09/22 02:44:46;;;;;;;;;;;;;;;10.55;39.53;101995.91;4993406;28;20362;-86
2022/09/22 02:47:17;;;;;;;;;;;;;;;10.53;39.81;101998.75;4988777;28;19921;-85
2022/09/22 02:49:45;;;;;;;;;;;;;;;10.51;39.65;101995.19;4994087;28;19944;-85
2022/09/22 02:52:14;;;;;;;;;;;;;;;10.50;39.54;101987.94;4988470;28;19933;-86
2022/09/22 02:54:42;;;;;;;;;;;;;;;10.49;39.75;101986.19;5008960;28;19921;-87
2022/09/22 02:57:10;;;;;;;;;;;;;;;10.48;39.64;101986.34;5010681;28;19933;-85
2022/09/22 02:59:37;;;;;;;;;;;;;;;10.46;39.78;101983.69;4996988;28;19921;-86
2022/09/22 03:02:05;;;;;;;;;;;;;;;10.46;39.81;101985.56;4991557;28;19921;-87
2022/09/22 03:04:33;;;;;;;;;;;;;;;10.45;39.57;101984.69;4994826;28;20438;-86
2022/09/22 03:07:00;;;;;;;;;;;;;;;10.44;39.54;101980.19;4996625;28;20386;-85
2022/09/22 03:09:30;;;;;;;;;;;;;;;10.42;39.44;101979.41;5000037;28;19921;-86
2022/09/22 03:11:57;;;;;;;;;;;;;;;10.41;39.64;101979.50;4992220;28;19921;-85
2022/09/22 03:14:25;;;;;;;;;;;;;;;10.39;40.11;101976.03;5006542;28;19921;-86
2022/09/22 03:16:54;;;;;;;;;;;;;;;10.37;39.94;101975.25;5000068;28;19929;-86
2022/09/22 03:19:25;;;;;;;;;;;;;;;10.35;39.95;101971.72;4993824;28;19921;-86
2022/09/22 03:21:57;;;;;;;;;;;;;;;10.33;39.78;101977.28;5005011;28;19922;-84
2022/09/22 03:24:32;;;;;;;;;;;;;;;10.31;40.00;101972.94;5011705;28;19921;-84
2022/09/22 03:27:09;;;;;;;;;;;;;;;10.29;39.99;101973.03;5000269;28;20461;-86
2022/09/22 03:29:42;;;;;;;;;;;;;;;10.28;39.93;101964.94;4992574;28;20016;-86
2022/09/22 03:32:11;;;;;;;;;;;;;;;10.26;39.77;101962.28;4988920;28;19932;-86
2022/09/22 03:34:39;;;;;;;;;;;;;;;10.25;39.79;101966.00;4990679;28;20400;-85
2022/09/22 03:37:07;;;;;;;;;;;;;;;10.23;39.94;101960.63;5024155;28;20020;-86
2022/09/22 03:39:35;;;;;;;;;;;;;;;10.21;39.50;101967.22;5013067;28;19996;-85
2022/09/22 03:42:02;;;;;;;;;;;;;;;10.21;39.68;101969.94;4991529;28;19927;-85
2022/09/22 03:44:31;;;;;;;;;;;;;;;10.18;39.70;101965.56;4989439;28;20008;-86
2022/09/22 03:47:01;;;;;;;;;;;;;;;10.17;39.79;101966.53;4995135;28;20095;-86
2022/09/22 03:49:32;;;;;;;;;;;;;;;10.16;39.66;101972.97;5001913;28;19921;-86
2022/09/22 03:52:01;;;;;;;;;;;;;;;10.15;39.63;101970.38;4990409;28;19967;-86
2022/09/22 03:54:31;;;;;;;;;;;;;;;10.13;39.78;101970.47;4995700;28;20400;-86
2022/09/22 03:57:00;;;;;;;;;;;;;;;10.13;39.78;101961.38;5011037;28;19921;-85
2022/09/22 03:59:30;;;;;;;;;;;;;;;10.11;39.66;101966.97;4996131;28;20259;-86
2022/09/22 04:02:03;;;;;;;;;;;;;;;10.10;39.81;101967.94;4983568;28;20413;-86
2022/09/22 04:04:33;;;;;;;;;;;;;;;10.08;39.85;101966.28;4995774;28;20631;-86
2022/09/22 04:07:11;;;;;;;;;;;;;;;10.07;40.02;101959.09;4997031;28;20306;-87
2022/09/22 04:09:43;;;;;;;;;;;;;;;10.05;40.03;101959.19;4991764;28;20444;-86
2022/09/22 04:12:13;;;;;;;;;;;;;;;10.04;40.06;101959.28;4966215;28;19972;-85
2022/09/22 04:17:36;;;;;;;;;;;;;;;10.01;39.79;101951.28;5000242;28;19929;-84
2022/09/22 04:20:05;;;;;;;;;;;;;;;9.99;40.10;101948.63;4986454;28;20443;-84
2022/09/22 04:22:33;;;;;;;;;;;;;;;9.96;40.21;101943.41;4994606;28;20019;-84
2022/09/22 04:25:01;;;;;;;;;;;;;;;9.94;39.98;101948.09;5018212;28;19922;-84
2022/09/22 04:27:29;;;;;;;;;;;;;;;9.93;40.25;101948.19;5011707;28;19921;-85
2022/09/22 04:29:59;;;;;;;;;;;;;;;9.92;40.25;101954.63;4984763;28;20361;-85
2022/09/22 04:32:27;;;;;;;;;;;;;;;9.90;39.91;101957.50;5000921;28;20444;-85
2022/09/22 04:34:56;;;;;;;;;;;;;;;9.89;40.27;101950.25;4995667;28;19922;-84
2022/09/22 04:37:24;;;;;;;;;;;;;;;9.87;40.04;101946.75;4994275;28;19921;-86
2022/09/22 04:39:53;;;;;;;;;;;;;;;9.87;40.39;101946.75;4997702;28;19973;-84
2022/09/22 04:42:20;;;;;;;;;;;;;;;9.85;40.34;101937.75;4999466;28;19921;-84
2022/09/22 04:44:48;;;;;;;;;;;;;;;9.84;40.03;101938.75;4988613;23;19923;-82
2022/09/22 04:47:16;;;;;;;;;;;;;;;9.83;40.33;101943.31;4954603;28;20390;-82
2022/09/22 04:49:43;;;;;;;;;;;;;;;9.82;40.35;101938.00;4956358;28;20403;-82
2022/09/22 04:52:12;;;;;;;;;;;;;;;9.81;40.41;101948.03;4956224;28;19947;-83
2022/09/22 04:54:41;;;;;;;;;;;;;;;9.79;40.10;101941.78;4950450;28;20382;-82
2022/09/22 04:57:09;;;;;;;;;;;;;;;9.78;40.03;101948.25;4928367;29;19948;-81
2022/09/22 04:59:37;;;;;;;;;;;;;;;9.78;40.17;101950.09;4939904;29;20275;-82
2022/09/22 05:02:05;;;;;;;;;;;;;;;9.76;40.13;101952.03;4945783;29;19928;-82
2022/09/22 05:04:32;;;;;;;;;;;;;;;9.75;40.27;101955.75;4964373;28;19955;-82
2022/09/22 05:07:00;;;;;;;;;;;;;;;9.75;40.46;101956.63;4972099;28;20579;-82
2022/09/22 05:09:29;;;;;;;;;;;;;;;9.74;40.40;101954.03;4959250;28;20383;-83
2022/09/22 05:12:00;;;;;;;;;;;;;;;9.74;40.32;101962.22;4953152;28;19930;-81
2022/09/22 05:14:27;;;;;;;;;;;;;;;9.72;40.51;101948.66;4962764;28;19930;-82
2022/09/22 05:16:55;;;;;;;;;;;;;;;9.71;40.52;101956.97;4938995;28;19993;-82
2022/09/22 05:19:23;;;;;;;;;;;;;;;9.70;40.54;101957.94;4936964;29;19965;-81
2022/09/22 05:21:51;;;;;;;;;;;;;;;9.67;40.56;101953.53;4955560;28;19930;-81
2022/09/22 05:24:19;;;;;;;;;;;;;;;9.67;40.57;101961.75;4932251;29;20446;-82
2022/09/22 05:26:49;;;;;;;;;;;;;;;9.66;40.54;101956.41;4968606;28;20057;-80
2022/09/22 05:29:17;;;;;;;;;;;;;;;9.65;40.63;101960.09;4962001;28;19922;-80
2022/09/22 05:31:45;;;;;;;;;;;;;;;9.64;40.53;101961.09;4938041;29;19926;-82
2022/09/22 05:34:13;;;;;;;;;;;;;;;9.63;40.33;101967.53;4921669;29;20272;-81
2022/09/22 05:36:40;;;;;;;;;;;;;;;9.61;40.75;101964.88;4963196;28;19934;-81
2022/09/22 05:39:08;;;;;;;;;;;;;;;9.61;40.48;101967.63;4942656;29;20037;-80
2022/09/22 05:41:36;;;;;;;;;;;;;;;9.59;40.58;101969.56;4951726;29;19929;-80
2022/09/22 05:44:05;;;;;;;;;;;;;;;9.60;40.70;101970.44;4959482;28;19929;-82
2022/09/22 05:46:32;;;;;;;;;;;;;;;9.57;40.59;101971.56;4949285;28;20029;-80
2022/09/22 05:49:00;;;;;;;;;;;;;;;9.57;40.69;101971.56;4969778;28;19930;-81
2022/09/22 05:51:27;;;;;;;;;;;;;;;9.56;40.71;101968.91;4938717;29;20282;-81
2022/09/22 05:53:55;;;;;;;;;;;;;;;9.55;40.85;101970.75;4963497;28;19930;-81
2022/09/22 05:56:23;;;;;;;;;;;;;;;9.53;40.76;101971.84;4950605;29;20384;-80
2022/09/22 05:58:50;;;;;;;;;;;;;;;9.53;40.80;101971.84;4960001;28;19926;-79
2022/09/22 06:01:19;;;;;;;;;;;;;;;9.52;40.71;101972.81;4939834;29;20784;-81
2022/09/22 06:03:47;;;;;;;;;;;;;;;9.51;40.87;101973.78;4926109;29;20648;-81
2022/09/22 06:06:15;;;;;;;;;;;;;;;9.50;41.09;101980.22;4940094;28;19933;-81
2022/09/22 06:08:43;;;;;;;;;;;;;;;9.49;41.02;101979.38;4935926;29;20417;-82
2022/09/22 06:11:16;;;;;;;;;;;;;;;9.49;41.15;101973.91;4944608;28;19923;-83
2022/09/22 06:13:44;;;;;;;;;;;;;;;9.48;41.34;101980.34;4936739;29;19930;-81
2022/09/22 06:16:12;;;;;;;;;;;;;;;9.49;41.24;101973.91;4959857;28;20435;-81
2022/09/22 06:18:41;;;;;;;;;;;;;;;9.50;41.11;101977.50;4953466;28;20282;-82
2022/09/22 06:21:09;;;;;;;;;;;;;;;9.50;41.22;101969.28;4932294;29;19930;-81
2022/09/22 06:23:37;;;;;;;;;;;;;;;9.51;41.36;101973.78;4948368;28;20164;-81
2022/09/22 06:26:09;;;;;;;;;;;;;;;9.51;41.54;101971.94;4923928;29;19993;-81
2022/09/22 06:28:37;;;;;;;;;;;;;;;9.52;41.48;101973.69;4952061;28;19997;-80
2022/09/22 06:31:06;;;;;;;;;;;;;;;9.53;41.56;101961.78;4936388;29;20346;-82
2022/09/22 06:33:34;;;;;;;;;;;;;;;9.55;41.34;101970.75;4948268;28;20030;-82
2022/09/22 06:36:06;;;;;;;;;;;;;;;9.56;41.37;101974.38;4946236;28;20322;-83
2022/09/22 06:38:34;;;;;;;;;;;;;;;9.56;42.38;101977.09;4943246;29;19933;-83
2022/09/22 06:41:03;;;;;;;;;;;;;;;9.60;41.76;101973.19;4955545;28;20318;-82
2022/09/22 06:43:31;;;;;;;;;;;;;;;9.62;41.77;101972.09;4953596;28;19922;-82
2022/09/22 06:46:01;;;;;;;;;;;;;;;9.67;42.16;101974.53;4952167;28;19923;-83
2022/09/22 06:48:30;;;;;;;;;;;;;;;9.74;42.70;101968.53;4953881;28;19959;-83
2022/09/22 06:50:58;;;;;;;;;;;;;;;9.88;42.96;101970.38;4938721;29;20522;-82
2022/09/22 06:53:27;;;;;;;;;;;;;;;10.06;43.57;101973.72;4953940;28;20446;-81
2022/09/22 06:55:55;;;;;;;;;;;;;;;10.28;44.07;101965.81;4947630;28;20482;-81
2022/09/22 06:58:24;;;;;;;;;;;;;;;10.58;44.20;101968.28;4954209;28;19930;-81
2022/09/22 07:00:52;;;;;;;;;;;;;;;10.89;44.41;101967.91;4945870;29;19938;-83
2022/09/22 07:03:21;;;;;;;;;;;;;;;11.24;44.23;101969.94;4950017;29;20387;-83
2022/09/22 07:05:53;;;;;;;;;;;;;;;11.60;44.15;101969.09;4937706;29;19922;-83
2022/09/22 07:08:21;;;;;;;;;;;;;;;11.98;43.68;101960.75;4964986;28;19930;-83
2022/09/22 07:10:55;;;;;;;;;;;;;;;12.35;43.87;101956.06;4955594;28;19930;-82
2022/09/22 07:13:25;;;;;;;;;;;;;;;12.72;43.68;101967.78;4955047;28;19985;-83
2022/09/22 07:15:54;;;;;;;;;;;;;;;13.09;43.23;101966.63;4938301;29;19929;-83
2022/09/22 07:18:22;;;;;;;;;;;;;;;13.46;42.64;101971.84;4955475;28;19926;-86
2022/09/22 07:20:51;;;;;;;;;;;;;;;13.82;43.13;101959.69;4946072;28;19926;-83
2022/09/22 07:23:19;;;;;;;;;;;;;;;14.14;41.84;101962.47;4932735;29;19952;-84
2022/09/22 07:25:55;;;;;;;;;;;;;;;14.49;42.29;101965.00;4960694;28;19923;-83
2022/09/22 07:28:27;;;;;;;;;;;;;;;14.82;42.04;101964.78;4929573;29;19923;-83
2022/09/22 07:30:57;;;;;;;;;;;;;;;15.14;41.93;101967.44;4944000;29;19962;-83
2022/09/22 07:33:24;;;;;;;;;;;;;;;15.44;42.17;101967.44;4945843;29;19986;-84
2022/09/22 07:36:03;;;;;;;;;;;;;;;15.73;40.52;101961.16;4917892;29;19927;-81
2022/09/22 07:38:32;;;;;;;;;;;;;;;16.01;41.02;101962.22;4946860;29;19931;-82
2022/09/22 07:41:00;;;;;;;;;;;;;;;16.26;40.69;101965.34;4919043;29;19923;-82
2022/09/22 07:43:29;;;;;;;;;;;;;;;16.48;40.32;101963.31;4927660;29;19930;-81
2022/09/22 07:45:57;;;;;;;;;;;;;;;16.66;39.57;101967.06;4947891;28;19949;-81
2022/09/22 07:48:41;;;;;;;;;;;;;;;16.86;39.60;101967.91;4950348;29;19941;-81
2022/09/22 07:51:09;;;;;;;;;;;;;;;17.05;39.62;101965.13;4949789;28;19923;-81
2022/09/22 07:53:44;;;;;;;;;;;;;;;17.21;39.06;101964.50;4925432;29;19927;-81
2022/09/22 07:56:13;;;;;;;;;;;;;;;17.33;38.45;101972.44;4948219;28;19934;-80
2022/09/22 07:58:45;;;;;;;;;;;;;;;17.46;39.25;101963.81;4933284;29;19922;-81
2022/09/22 08:01:13;;;;;;;;;;;;;;;17.58;38.90;101970.00;4934512;29;19941;-80
2022/09/22 08:03:41;;;;;;;;;;;;;;;17.67;38.81;101967.19;4949550;29;19989;-81
2022/09/22 08:06:10;;;;;;;;;;;;;;;17.74;37.31;101960.03;4919607;29;20421;-80
2022/09/22 08:08:38;;;;;;;;;;;;;;;17.80;36.47;101955.81;4950016;29;19974;-83
2022/09/22 08:11:06;;;;;;;;;;;;;;;17.78;34.58;101960.63;4934535;29;19933;-80
2022/09/22 08:13:35;;;;;;;;;;;;;;;17.74;33.99;101954.50;4946530;29;19987;-83
2022/09/22 08:16:05;;;;;;;;;;;;;;;17.70;35.05;101960.47;4919454;29;19971;-83
2022/09/22 08:18:35;;;;;;;;;;;;;;;17.61;34.96;101959.50;4933026;29;19961;-84
2022/09/22 08:21:03;;;;;;;;;;;;;;;17.53;35.16;101967.72;4941994;29;19961;-83
2022/09/22 08:23:31;;;;;;;;;;;;;;;17.44;35.83;101959.44;4949486;29;19922;-83
2022/09/22 08:26:02;;;;;;;;;;;;;;;17.33;35.33;101955.84;4949379;28;19922;-83
2022/09/22 08:28:30;;;;;;;;;;;;;;;17.25;35.68;101955.72;4950543;28;19962;-83
2022/09/22 08:30:58;;;;;;;;;;;;;;;17.14;33.92;101946.78;4931566;29;19930;-83
2022/09/22 08:33:29;;;;;;;;;;;;;;;17.05;32.95;101953.19;4933310;29;20368;-82
2022/09/22 08:35:57;;;;;;;;;;;;;;;16.96;34.24;101946.63;4944997;28;20436;-82
2022/09/22 08:38:27;;;;;;;;;;;;;;;16.87;33.99;101955.81;4933859;29;19927;-82
2022/09/22 08:41:00;;;;;;;;;;;;;;;16.77;34.22;101954.97;4934291;29;19946;-82
2022/09/22 08:43:30;;;;;;;;;;;;;;;16.69;35.10;101952.06;4923021;29;19923;-82
2022/09/22 08:45:58;;;;;;;;;;;;;;;16.63;35.61;101957.19;4938701;29;19934;-82
2022/09/22 08:54:04;;;;;;;;;;;;;;;16.45;35.43;101961.72;4934777;29;20075;-81
2022/09/22 08:56:35;;;;;;;;;;;;;;;16.43;35.57;101958.22;4929171;29;20065;-81
2022/09/22 08:59:06;;;;;;;;;;;;;;;16.39;34.64;101959.53;4924293;29;20017;-81
2022/09/22 09:01:44;;;;;;;;;;;;;;;16.40;35.55;101958.53;4931249;29;19923;-81
2022/09/22 09:04:30;;;;;;;;;;;;;;;16.42;36.06;101961.97;4946370;29;19942;-81
2022/09/22 09:07:06;;;;;;;;;;;;;;;16.45;36.23;101958.94;4931609;29;19923;-81
2022/09/22 09:09:43;;;;;;;;;;;;;;;16.50;36.78;101962.13;4948435;29;20438;-83
2022/09/22 09:12:17;;;;;;;;;;;;;;;16.56;36.76;101961.56;4925315;29;19929;-81
2022/09/22 09:14:55;;;;;;;;;;;;;;;16.61;36.85;101961.97;4933367;29;19957;-81
2022/09/22 09:17:26;;;;;;;;;;;;;;;16.70;36.90;101953.81;4935843;29;19941;-82
2022/09/22 09:19:55;;;;;;;;;;;;;;;16.78;36.88;101956.72;4946152;29;19923;-81
2022/09/22 09:22:25;;;;;;;;;;;;;;;16.85;36.06;101958.75;4943498;29;19927;-82
2022/09/22 09:24:55;;;;;;;;;;;;;;;16.93;36.24;101955.22;4926387;29;19930;-81
2022/09/22 09:27:47;;;;;;;;;;;;;;;17.01;36.42;101952.63;4932514;29;20410;-81
2022/09/22 09:30:16;;;;;;;;;;;;;;;17.06;34.54;101955.81;4909034;29;19965;-81
2022/09/22 09:32:48;;;;;;;;;;;;;;;17.13;35.34;101959.72;4935492;29;20040;-82
2022/09/22 09:35:18;;;;;;;;;;;;;;;17.18;34.92;101960.13;4916916;29;19930;-83
2022/09/22 09:37:47;;;;;;;;;;;;;;;17.24;35.78;101942.91;4911130;29;19923;-83
2022/09/22 09:40:17;;;;;;;;;;;;;;;17.26;34.69;101957.47;4934967;29;20375;-84
2022/09/22 09:42:46;;;;;;;;;;;;;;;17.32;35.96;101945.78;4945156;29;19923;-83
2022/09/22 09:45:15;;;;;;;;;;;;;;;17.39;36.12;101944.19;4945783;29;19923;-82
2022/09/22 09:47:48;;;;;;;;;;;;;;;17.48;35.83;101947.06;4949023;29;19927;-81
2022/09/22 09:50:20;;;;;;;;;;;;;;;17.55;36.32;101942.66;4934453;29;19922;-82
2022/09/22 09:52:49;;;;;;;;;;;;;;;17.63;35.28;101932.56;4936018;29;20001;-81
2022/09/22 09:55:21;;;;;;;;;;;;;;;17.70;35.49;101928.13;4941301;29;20551;-82
2022/09/22 09:58:04;;;;;;;;;;;;;;;17.81;35.38;101929.84;4908715;29;20038;-82
2022/09/22 10:00:32;;;;;;;;;;;;;;;17.90;35.53;101925.25;4935980;29;20338;-82
2022/09/22 10:03:04;;;;;;;;;;;;;;;17.96;35.22;101916.34;4938385;29;20670;-83
2022/09/22 10:05:36;;;;;;;;;;;;;;;18.03;35.54;101914.66;4935898;29;19933;-82
2022/09/22 10:08:14;;;;;;;;;;;;;;;18.10;35.37;101916.66;4923933;29;19923;-82
2022/09/22 10:10:42;;;;;;;;;;;;;;;18.19;35.61;101906.50;4957793;28;19956;-83
2022/09/22 10:13:21;;;;;;;;;;;;;;;18.26;35.19;101907.63;4937775;29;20071;-83
2022/09/22 10:16:00;;;;;;;;;;;;;;;18.33;35.16;101894.84;4957222;28;19929;-83
2022/09/22 10:18:34;;;;;;;;;;;;;;;18.43;34.52;101905.84;4935802;29;19922;-78
2022/09/22 10:21:02;;;;;;;;;;;;;;;18.50;34.91;101901.44;4956506;28;19922;-78
2022/09/22 10:23:34;;;;;;;;;;;;;;;18.56;34.18;101895.25;4952468;29;19922;-79
2022/09/22 10:26:16;;;;;;;;;;;;;;;18.64;34.29;101891.66;4934967;28;19930;-82
2022/09/22 10:28:49;;;;;;;;;;;;;;;18.72;34.93;101892.59;4924478;29;20029;-82
2022/09/22 10:31:21;;;;;;;;;;;;;;;18.80;34.85;101897.34;4919604;29;19923;-82
2022/09/22 10:33:55;;;;;;;;;;;;;;;18.87;34.40;101899.28;4921084;29;19930;-82
2022/09/22 10:36:24;;;;;;;;;;;;;;;18.95;34.66;101890.16;4939524;29;19922;-82
2022/09/22 10:38:54;;;;;;;;;;;;;;;19.04;34.85;101891.06;4946864;29;20680;-81
2022/09/22 10:41:32;;;;;;;;;;;;;;;19.12;34.67;101886.44;4934514;29;19922;-82
2022/09/22 10:44:01;;;;;;;;;;;;;;;19.19;34.58;101886.63;4948481;29;19923;-82
2022/09/22 10:47:22;;;;;;;;;;;;;;;19.27;33.31;101884.81;4969138;28;20060;-82
2022/09/22 10:50:07;;;;;;;;;;;;;;;19.36;33.34;101884.84;4989954;28;19945;-82
2022/09/22 10:52:41;;;;;;;;;;;;;;;19.41;33.56;101880.50;4961679;28;19921;-82
2022/09/22 10:55:18;;;;;;;;;;;;;;;19.46;33.33;101880.03;4972951;28;19979;-82
2022/09/22 10:57:55;;;;;;;;;;;;;;;19.49;33.53;101874.97;4995254;28;19922;-81
2022/09/22 11:00:23;;;;;;;;;;;;;;;19.54;33.21;101871.72;5005135;28;19977;-81
2022/09/22 11:03:10;;;;;;;;;;;;;;;19.57;33.32;101875.00;4976530;28;19930;-82
2022/09/22 11:14:28;;;;;;;;;;;;;;;19.60;32.61;101865.47;4967073;28;19925;-82
2022/09/22 11:17:03;;;;;;;;;;;;;;;19.60;32.16;101871.03;4983114;28;19922;-82
2022/09/22 11:19:44;;;;;;;;;;;;;;;19.60;32.33;101863.56;4997684;28;19945;-83
2022/09/22 11:22:21;;;;;;;;;;;;;;;19.62;32.17;101857.84;4985334;28;19922;-82
2022/09/22 11:24:54;;;;;;;;;;;;;;;19.63;31.29;101860.44;5000397;28;20024;-82
2022/09/22 11:27:30;;;;;;;;;;;;;;;19.64;30.90;101853.84;4999236;28;19933;-82
2022/09/22 11:30:07;;;;;;;;;;;;;;;19.67;31.74;101855.44;4983962;28;20357;-81
2022/09/22 11:32:53;;;;;;;;;;;;;;;19.70;31.88;101848.69;5000928;28;19937;-82
2022/09/22 11:35:44;;;;;;;;;;;;;;;19.74;32.04;101844.50;4986067;28;19922;-82
2022/09/22 11:38:18;;;;;;;;;;;;;;;19.77;32.05;101836.72;4970293;28;20487;-82
2022/09/22 11:41:15;;;;;;;;;;;;;;;19.82;32.03;101839.81;4988959;28;19926;-82
2022/09/22 11:43:50;;;;;;;;;;;;;;;19.86;32.04;101834.81;4999912;28;20019;-83
2022/09/22 11:46:33;;;;;;;;;;;;;;;19.90;31.70;101827.84;5008609;28;19931;-82
2022/09/22 11:49:07;;;;;;;;;;;;;;;19.94;31.91;101821.84;5008932;28;19922;-82
2022/09/22 11:51:42;;;;;;;;;;;;;;;19.97;31.59;101817.81;4993135;28;19925;-82
2022/09/22 11:54:17;;;;;;;;;;;;;;;20.00;32.16;101823.03;5007303;28;19922;-82
2022/09/22 11:56:47;;;;;;;;;;;;;;;20.05;32.03;101825.28;5008387;28;19944;-81
2022/09/22 11:59:23;;;;;;;;;;;;;;;20.08;31.68;101823.03;5004169;28;19922;-82
2022/09/22 12:01:53;;;;;;;;;;;;;;;20.11;31.20;101813.50;5002027;28;19922;-83
2022/09/22 12:04:25;;;;;;;;;;;;;;;20.13;31.37;101811.38;5010551;28;19921;-82
2022/09/22 12:06:55;;;;;;;;;;;;;;;20.15;31.25;101810.19;5002702;28;19993;-81
2022/09/22 12:09:30;;;;;;;;;;;;;;;20.18;31.58;101808.97;4984522;28;19921;-82
2022/09/22 12:12:04;;;;;;;;;;;;;;;20.21;31.58;101797.50;5017179;28;19969;-83
2022/09/22 12:14:35;;;;;;;;;;;;;;;20.23;31.24;101790.72;4999387;28;19953;-82
2022/09/22 12:17:07;;;;;;;;;;;;;;;20.25;30.58;101787.78;4989610;28;19926;-82
2022/09/22 12:19:40;;;;;;;;;;;;;;;20.27;30.33;101796.81;4986368;28;19922;-82
2022/09/22 12:22:14;;;;;;;;;;;;;;;20.25;28.69;101791.41;4986960;28;19925;-82
2022/09/22 12:24:45;;;;;;;;;;;;;;;20.24;27.36;101788.81;4989573;28;20346;-82
2022/09/22 12:27:18;;;;;;;;;;;;;;;20.23;28.79;101790.72;5003924;28;20016;-79
2022/09/22 12:29:53;;;;;;;;;;;;;;;20.19;29.07;101783.78;4992755;28;19922;-82
2022/09/22 12:32:23;;;;;;;;;;;;;;;20.18;29.47;101787.59;5014229;28;19922;-82
2022/09/22 12:34:52;;;;;;;;;;;;;;;20.15;29.64;101775.97;4995784;28;19969;-81
2022/09/22 12:37:26;;;;;;;;;;;;;;;20.13;30.17;101762.22;4999379;28;19922;-82
2022/09/22 12:39:54;;;;;;;;;;;;;;;20.11;29.82;101758.78;4967406;28;19950;-81
2022/09/22 12:42:24;;;;;;;;;;;;;;;20.10;30.00;101765.38;4982955;28;19968;-81
2022/09/22 12:44:56;;;;;;;;;;;;;;;20.10;30.16;101759.81;4976242;28;19922;-82
2022/09/22 12:47:28;;;;;;;;;;;;;;;20.11;30.14;101758.78;5015757;28;19922;-80
2022/09/22 12:49:57;;;;;;;;;;;;;;;20.12;30.09;101762.44;4981693;28;19928;-81
2022/09/22 12:52:53;;;;;;;;;;;;;;;20.14;29.91;101760.31;4997336;28;19925;-82
2022/09/22 12:55:28;;;;;;;;;;;;;;;20.15;30.26;101753.72;4999105;28;20382;-82
2022/09/22 12:57:57;;;;;;;;;;;;;;;20.16;29.95;101753.56;4980529;28;19933;-81
2022/09/22 13:00:33;;;;;;;;;;;;;;;20.17;30.14;101748.88;5009463;28;19934;-81
2022/09/22 13:03:01;;;;;;;;;;;;;;;20.19;29.85;101758.78;4992298;28;19985;-81
2022/09/22 13:05:42;;;;;;;;;;;;;;;20.19;29.49;101758.78;5000900;28;20424;-82
2022/09/22 13:08:24;;;;;;;;;;;;;;;20.20;29.49;101754.91;4980352;28;20364;-82
2022/09/22 13:10:56;;;;;;;;;;;;;;;20.21;29.59;101753.00;4994971;28;19933;-81
2022/09/22 13:13:34;;;;;;;;;;;;;;;20.20;29.07;101745.75;4998153;28;19932;-82
2022/09/22 13:16:04;;;;;;;;;;;;;;;20.20;29.00;101752.16;4976172;28;19921;-82
2022/09/22 13:18:34;;;;;;;;;;;;;;;20.21;29.31;101753.00;4979322;28;19929;-82
2022/09/22 13:21:02;;;;;;;;;;;;;;;20.21;29.56;101753.00;4994943;28;19922;-82
2022/09/22 13:23:30;;;;;;;;;;;;;;;20.21;29.42;101739.97;4968209;28;19935;-82
2022/09/22 13:26:06;;;;;;;;;;;;;;;20.19;27.77;101736.53;5004229;28;19921;-83
2022/09/22 13:28:34;;;;;;;;;;;;;;;20.18;28.32;101737.56;4990083;28;19936;-83
2022/09/22 13:31:09;;;;;;;;;;;;;;;20.18;29.24;101728.38;4996347;28;19922;-83
2022/09/22 13:33:37;;;;;;;;;;;;;;;20.15;29.04;101724.03;4985198;28;19945;-82
2022/09/22 13:36:06;;;;;;;;;;;;;;;20.14;28.44;101718.63;4978611;28;19925;-83
2022/09/22 13:38:36;;;;;;;;;;;;;;;20.13;28.44;101714.13;4990306;28;20398;-82
2022/09/22 13:41:09;;;;;;;;;;;;;;;20.09;27.21;101719.19;4998631;28;19957;-83
2022/09/22 13:43:39;;;;;;;;;;;;;;;20.09;28.11;101718.31;5003881;28;20023;-83
2022/09/22 13:46:16;;;;;;;;;;;;;;;20.06;26.64;101713.97;4984028;28;19929;-82
2022/09/22 13:48:44;;;;;;;;;;;;;;;20.01;26.53;101699.75;5004433;28;19949;-82